createdAt,value
2023-03-06T00:01:27.438Z,137.95
2023-03-06T00:04:16.366Z,122.53
2023-03-06T00:07:03.001Z,119.80
2023-03-06T00:09:49.794Z,110.25
2023-03-06T00:12:38.957Z,89.88
2023-03-06T00:15:28.481Z,93.63
2023-03-06T00:18:24.097Z,77.80
2023-03-06T00:21:16.132Z,79.53
2023-03-06T00:24:05.060Z,84.22
2023-03-06T00:26:51.046Z,79.60
2023-03-06T00:29:38.037Z,89.63
2023-03-06T00:32:26.179Z,114.90
2023-03-06T00:35:13.630Z,90.97
2023-03-06T00:38:04.653Z,97.13
2023-03-06T00:40:55.513Z,98.35
2023-03-06T00:43:42.114Z,94.07
2023-03-06T00:46:28.701Z,91.30
2023-03-06T00:49:15.336Z,89.65
2023-03-06T00:52:03.748Z,90.28
2023-03-06T00:54:49.785Z,83.82
2023-03-06T00:57:36.372Z,72.00
2023-03-06T01:00:22.539Z,70.45
2023-03-06T01:03:09.985Z,85.63
2023-03-06T01:05:57.943Z,77.32
2023-03-06T01:08:44.545Z,71.63
2023-03-06T01:11:31.526Z,81.75
2023-03-06T01:14:19.530Z,88.40
2023-03-06T01:17:06.020Z,109.95
2023-03-06T01:19:52.633Z,107.60
2023-03-06T01:22:39.053Z,100.03
2023-03-06T01:25:26.185Z,118.05
2023-03-06T01:28:12.595Z,98.53
2023-03-06T01:31:04.520Z,90.10
2023-03-06T01:33:50.425Z,81.90
2023-03-06T01:36:37.571Z,65.32
2023-03-06T01:39:25.121Z,61.72
2023-03-06T01:42:11.844Z,55.45
2023-03-06T01:45:01.392Z,46.97
2023-03-06T01:47:48.196Z,40.85
2023-03-06T01:50:34.631Z,40.17
2023-03-06T01:53:21.566Z,44.40
2023-03-06T01:56:08.082Z,37.78
2023-03-06T01:58:55.107Z,43.90
2023-03-06T02:01:42.593Z,47.75
2023-03-06T02:04:32.778Z,46.85
2023-03-06T02:07:20.359Z,51.85
2023-03-06T02:10:07.805Z,60.80
2023-03-06T02:12:54.656Z,66.82
2023-03-06T02:15:41.818Z,65.85
2023-03-06T02:18:29.499Z,58.70
2023-03-06T02:21:22.232Z,60.42
2023-03-06T02:24:30.201Z,55.10
2023-03-06T02:27:20.037Z,55.83
2023-03-06T02:30:09.865Z,86.20
2023-03-06T02:32:57.361Z,88.40
2023-03-06T02:35:49.376Z,125.65
2023-03-06T02:38:48.033Z,116.57
2023-03-06T02:41:34.250Z,98.20
2023-03-06T02:44:22.510Z,63.20
2023-03-06T02:47:14.431Z,77.78
2023-03-06T02:50:04.904Z,70.97
2023-03-06T02:52:53.859Z,56.67
2023-03-06T02:55:43.994Z,56.10
2023-03-06T02:58:30.192Z,49.70
2023-03-06T03:01:18.076Z,54.08
2023-03-06T03:04:04.698Z,67.60
2023-03-06T03:06:54.057Z,66.75
2023-03-06T03:09:40.223Z,77.95
2023-03-06T03:12:28.807Z,81.00
2023-03-06T03:15:15.257Z,60.10
2023-03-06T03:18:05.010Z,54.45
2023-03-06T03:20:55.179Z,40.88
2023-03-06T03:23:44.658Z,33.92
2023-03-06T03:26:31.279Z,29.27
2023-03-06T03:29:22.789Z,35.72
2023-03-06T03:32:09.725Z,36.20
2023-03-06T03:34:57.261Z,33.10
2023-03-06T03:37:45.117Z,37.67
2023-03-06T03:40:32.253Z,33.55
2023-03-06T03:43:19.685Z,35.45
2023-03-06T03:46:07.171Z,34.90
2023-03-06T03:48:53.795Z,55.20
2023-03-06T03:51:40.858Z,47.38
2023-03-06T03:54:27.086Z,49.53
2023-03-06T03:57:14.383Z,40.75
2023-03-06T04:00:12.088Z,41.33
2023-03-06T04:03:10.046Z,33.78
2023-03-06T04:06:03.897Z,84.18
2023-03-06T04:08:50.530Z,42.17
2023-03-06T04:11:37.650Z,36.58
2023-03-06T04:14:27.214Z,34.25
2023-03-06T04:17:33.675Z,38.92
2023-03-06T04:20:23.882Z,43.22
2023-03-06T04:23:10.428Z,36.55
2023-03-06T04:25:57.921Z,40.63
2023-03-06T04:28:44.822Z,38.00
2023-03-06T04:31:31.919Z,43.63
2023-03-06T04:34:18.308Z,50.17
2023-03-06T04:37:06.408Z,41.17
2023-03-06T04:39:55.044Z,40.92
2023-03-06T04:42:41.986Z,41.20
2023-03-06T04:45:29.887Z,47.38
2023-03-06T04:48:19.982Z,38.85
2023-03-06T04:51:06.404Z,39.10
2023-03-06T04:53:56.324Z,40.47
2023-03-06T04:56:42.460Z,41.33
2023-03-06T04:59:31.871Z,29.15
2023-03-06T05:02:18.683Z,35.70
2023-03-06T05:05:08.822Z,37.10
2023-03-06T05:07:55.753Z,39.58
2023-03-06T05:10:43.513Z,40.47
2023-03-06T05:13:29.914Z,45.30
2023-03-06T05:16:16.826Z,37.38
2023-03-06T05:19:04.106Z,42.28
2023-03-06T05:21:53.518Z,42.45
2023-03-06T05:24:42.386Z,39.97
2023-03-06T05:27:29.188Z,39.65
2023-03-06T05:30:15.752Z,41.15
2023-03-06T05:33:02.425Z,46.22
2023-03-06T05:35:48.976Z,45.72
2023-03-06T05:38:39.060Z,44.25
2023-03-06T05:41:25.423Z,38.42
2023-03-06T05:44:12.297Z,35.40
2023-03-06T05:47:00.302Z,36.38
2023-03-06T05:49:47.968Z,40.63
2023-03-06T05:52:36.993Z,42.33
2023-03-06T05:55:26.227Z,37.60
2023-03-06T05:58:12.718Z,42.05
2023-03-06T06:01:00.263Z,38.38
2023-03-06T06:03:48.447Z,46.08
2023-03-06T06:06:35.679Z,45.30
2023-03-06T06:09:22.639Z,46.28
2023-03-06T06:12:09.441Z,69.20
2023-03-06T06:14:55.948Z,62.30
2023-03-06T06:17:42.653Z,51.40
2023-03-06T06:20:29.231Z,50.75
2023-03-06T06:23:16.290Z,59.50
2023-03-06T06:26:07.879Z,64.60
2023-03-06T06:28:59.746Z,61.65
2023-03-06T06:31:46.631Z,52.55
2023-03-06T06:34:39.631Z,40.97
2023-03-06T06:37:26.202Z,51.88
2023-03-06T06:40:13.070Z,53.55
2023-03-06T06:43:02.288Z,49.17
2023-03-06T06:45:49.709Z,46.60
2023-03-06T06:48:37.842Z,54.90
2023-03-06T06:51:24.695Z,61.97
2023-03-06T06:54:23.633Z,51.80
2023-03-06T06:57:11.868Z,42.08
2023-03-06T06:59:58.687Z,48.03
2023-03-06T07:02:49.267Z,65.40
2023-03-06T07:05:35.471Z,81.38
2023-03-06T07:08:22.704Z,78.38
2023-03-06T07:11:12.952Z,69.88
2023-03-06T07:13:59.694Z,67.47
2023-03-06T07:16:46.259Z,64.05
2023-03-06T07:19:33.050Z,71.57
2023-03-06T07:22:22.730Z,71.70
2023-03-06T07:25:09.655Z,50.42
2023-03-06T07:27:56.325Z,47.03
2023-03-06T07:30:43.899Z,95.20
2023-03-06T07:33:32.854Z,39.13
2023-03-06T07:36:20.319Z,29.92
2023-03-06T07:39:07.775Z,27.83
2023-03-06T07:41:54.425Z,23.38
2023-03-06T07:44:43.779Z,11.65
2023-03-06T07:47:30.447Z,9.95
2023-03-06T07:50:18.817Z,14.10
2023-03-06T07:53:10.730Z,18.10
2023-03-06T07:58:48.384Z,14.23
2023-03-06T08:01:36.516Z,19.88
2023-03-06T08:04:23.481Z,22.40
2023-03-06T08:07:10.062Z,33.03
2023-03-06T08:09:56.721Z,30.25
2023-03-06T08:12:46.243Z,16.38
2023-03-06T08:15:33.586Z,20.48
2023-03-06T08:18:24.709Z,51.97
2023-03-06T08:21:16.320Z,86.00
2023-03-06T08:26:49.126Z,14.77
2023-03-06T08:29:35.839Z,15.32
2023-03-06T08:32:23.095Z,14.18
2023-03-06T08:35:09.714Z,20.25
2023-03-06T08:37:56.990Z,16.15
2023-03-06T08:40:43.663Z,26.33
2023-03-06T08:43:30.199Z,55.65
2023-03-06T08:46:21.443Z,31.10
2023-03-06T08:51:54.513Z,47.00
2023-03-06T08:54:41.011Z,47.42
2023-03-06T08:57:28.536Z,197.23
2023-03-06T09:00:15.834Z,37.00
2023-03-06T09:03:02.251Z,33.17
2023-03-06T09:05:48.564Z,36.78
2023-03-06T09:08:37.658Z,46.75
2023-03-06T09:11:28.726Z,50.92
2023-03-06T09:14:15.061Z,29.65
2023-03-06T09:17:01.353Z,25.85
2023-03-06T09:19:53.908Z,22.95
2023-03-06T09:22:42.552Z,24.90
2023-03-06T09:28:18.485Z,27.48
2023-03-06T09:31:16.235Z,19.58
2023-03-06T09:34:03.017Z,21.13
2023-03-06T09:36:56.831Z,49.55
2023-03-06T09:39:43.807Z,32.33
2023-03-06T09:42:31.678Z,26.08
2023-03-06T09:45:20.663Z,33.53
2023-03-06T09:48:16.236Z,30.83
2023-03-06T09:51:10.608Z,31.45
2023-03-06T09:54:13.532Z,24.23
2023-03-06T09:57:03.676Z,25.83
2023-03-06T09:59:56.055Z,39.50
2023-03-06T10:02:50.859Z,24.83
2023-03-06T10:05:43.507Z,26.23
2023-03-06T10:08:39.366Z,25.70
2023-03-06T10:11:34.573Z,30.42
2023-03-06T10:14:46.630Z,74.38
2023-03-06T10:17:37.769Z,211.43
2023-03-06T10:20:38.566Z,60.20
2023-03-06T10:23:52.566Z,29.10
2023-03-06T10:26:45.302Z,60.85
2023-03-06T10:29:41.055Z,18.13
2023-03-06T10:32:49.443Z,20.02
2023-03-06T10:35:48.905Z,19.08
2023-03-06T10:38:41.241Z,35.17
2023-03-06T10:41:32.078Z,82.00
2023-03-06T10:44:21.109Z,311.27
2023-03-06T10:47:27.846Z,178.52
2023-03-06T10:50:34.754Z,199.77
2023-03-06T10:53:25.410Z,77.70
2023-03-06T10:59:11.638Z,104.20
2023-03-06T11:02:21.437Z,32.17
2023-03-06T11:05:21.105Z,42.65
2023-03-06T11:08:21.907Z,129.52
2023-03-06T11:11:12.513Z,60.97
2023-03-06T11:14:02.261Z,16.73
2023-03-06T11:16:53.367Z,60.30
2023-03-06T11:19:43.406Z,92.13
2023-03-06T11:22:30.088Z,60.33
2023-03-06T11:25:21.618Z,37.70
2023-03-06T11:28:17.592Z,108.63
2023-03-06T11:31:06.676Z,344.05
2023-03-06T11:33:56.575Z,71.35
2023-03-06T11:36:48.894Z,20.88
2023-03-06T11:39:49.550Z,95.05
2023-03-06T11:42:39.740Z,28.33
2023-03-06T11:45:34.827Z,30.25
2023-03-06T11:48:23.938Z,22.40
2023-03-06T11:51:26.010Z,29.42
2023-03-06T11:54:13.441Z,58.85
2023-03-06T11:57:18.764Z,35.28
2023-03-06T12:00:30.050Z,30.75
2023-03-06T12:06:30.388Z,39.17
2023-03-06T12:09:24.522Z,34.15
2023-03-06T12:12:23.167Z,45.50
2023-03-06T12:15:40.756Z,30.92
2023-03-06T12:18:58.109Z,23.33
2023-03-06T12:22:12.660Z,30.05
2023-03-06T12:25:11.715Z,33.22
2023-03-06T12:28:00.969Z,26.60
2023-03-06T12:31:06.328Z,29.23
2023-03-06T12:34:12.555Z,18.13
2023-03-06T12:37:27.067Z,27.77
2023-03-06T12:40:38.943Z,22.67
2023-03-06T12:43:47.604Z,20.83
2023-03-06T12:46:42.003Z,28.35
2023-03-06T12:49:33.019Z,23.63
2023-03-06T12:55:22.713Z,23.98
2023-03-06T12:58:30.673Z,23.35
2023-03-06T13:01:32.919Z,25.58
2023-03-06T13:04:35.757Z,24.05
2023-03-06T13:07:32.378Z,21.80
2023-03-06T13:10:27.137Z,22.17
2023-03-06T13:13:46.397Z,20.45
2023-03-06T13:16:34.972Z,23.27
2023-03-06T13:19:26.749Z,21.35
2023-03-06T13:22:30.226Z,20.70
2023-03-06T13:25:17.395Z,21.92
2023-03-06T13:28:04.828Z,32.00
2023-03-06T13:30:56.119Z,23.52
2023-03-06T13:33:48.002Z,25.58
2023-03-06T13:36:39.556Z,47.72
2023-03-06T13:42:26.526Z,35.08
2023-03-06T13:45:24.551Z,26.63
2023-03-06T13:48:43.101Z,22.60
2023-03-06T13:51:35.008Z,37.03
2023-03-06T13:54:55.672Z,23.77
2023-03-06T13:57:57.075Z,19.77
2023-03-06T14:00:46.604Z,25.50
2023-03-06T14:04:04.486Z,16.85
2023-03-06T14:06:52.776Z,19.02
2023-03-06T14:09:44.730Z,19.65
2023-03-06T14:12:34.642Z,19.92
2023-03-06T14:15:23.746Z,27.63
2023-03-06T14:18:17.092Z,28.05
2023-03-06T14:21:05.720Z,33.83
2023-03-06T14:24:01.440Z,17.87
2023-03-06T14:26:50.775Z,14.00
2023-03-06T14:29:37.516Z,16.65
2023-03-06T14:32:24.522Z,27.80
2023-03-06T14:35:23.325Z,20.02
2023-03-06T14:38:12.980Z,17.75
2023-03-06T14:41:03.605Z,13.93
2023-03-06T14:43:50.393Z,14.80
2023-03-06T14:46:40.289Z,17.13
2023-03-06T14:49:27.214Z,15.80
2023-03-06T14:52:21.037Z,21.52
2023-03-06T14:55:11.879Z,17.08
2023-03-06T14:58:02.428Z,20.88
2023-03-06T15:00:51.630Z,17.23
2023-03-06T15:03:48.699Z,15.18
2023-03-06T15:06:39.728Z,18.17
2023-03-06T15:09:32.040Z,26.48
2023-03-06T15:12:22.805Z,22.15
2023-03-06T15:15:12.851Z,18.35
2023-03-06T15:18:00.405Z,17.27
2023-03-06T15:20:56.078Z,20.33
2023-03-06T15:23:49.446Z,17.10
2023-03-06T15:26:37.142Z,19.10
2023-03-06T15:29:24.136Z,22.50
2023-03-06T15:32:31.205Z,16.20
2023-03-06T15:35:37.342Z,18.85
2023-03-06T15:38:45.833Z,19.15
2023-03-06T15:41:40.026Z,20.88
2023-03-06T15:44:31.970Z,17.73
2023-03-06T15:47:18.334Z,17.20
2023-03-06T15:50:17.272Z,18.90
2023-03-06T15:53:03.935Z,17.55
2023-03-06T15:55:51.769Z,19.23
2023-03-06T15:58:39.273Z,21.25
2023-03-06T16:01:26.690Z,19.98
2023-03-06T16:04:14.043Z,23.90
2023-03-06T16:07:00.462Z,20.50
2023-03-06T16:09:47.493Z,21.48
2023-03-06T16:12:34.383Z,22.98
2023-03-06T16:15:23.198Z,22.23
2023-03-06T16:18:11.295Z,22.83
2023-03-06T16:20:57.867Z,22.00
2023-03-06T16:23:44.641Z,22.58
2023-03-06T16:26:35.286Z,27.38
2023-03-06T16:32:11.900Z,27.60
2023-03-06T16:34:58.700Z,22.35
2023-03-06T16:37:46.046Z,21.85
2023-03-06T16:40:37.793Z,23.90
2023-03-06T16:43:24.254Z,23.17
2023-03-06T16:46:22.840Z,21.35
2023-03-06T16:49:19.032Z,19.80
2023-03-06T16:52:09.017Z,21.00
2023-03-06T16:54:55.588Z,21.80
2023-03-06T16:57:42.068Z,20.95
2023-03-06T17:00:32.055Z,22.23
2023-03-06T17:03:18.802Z,23.17
2023-03-06T17:06:20.304Z,19.83
2023-03-06T17:09:07.594Z,21.33
2023-03-06T17:11:54.151Z,23.05
2023-03-06T17:14:40.777Z,22.08
2023-03-06T17:17:32.411Z,32.08
2023-03-06T17:20:19.980Z,38.10
2023-03-06T17:23:06.418Z,42.08
2023-03-06T17:26:02.755Z,48.92
2023-03-06T17:28:49.522Z,48.30
2023-03-06T17:31:38.776Z,55.38
2023-03-06T17:34:25.320Z,56.88
2023-03-06T17:37:11.817Z,65.45
2023-03-06T17:39:58.723Z,66.50
2023-03-06T17:42:45.691Z,69.50
2023-03-06T17:45:34.315Z,61.58
2023-03-06T17:48:23.741Z,81.13
2023-03-06T17:51:10.845Z,69.70
2023-03-06T17:53:57.643Z,68.10
2023-03-06T17:56:44.581Z,79.80
2023-03-06T17:59:34.001Z,229.00
2023-03-06T18:02:20.250Z,266.58
2023-03-06T18:05:07.563Z,201.73
2023-03-06T18:07:53.955Z,235.50
2023-03-06T18:10:41.878Z,162.88
2023-03-06T18:13:28.476Z,149.45
2023-03-06T18:16:17.498Z,117.30
2023-03-06T18:19:07.581Z,90.90
2023-03-06T18:21:54.917Z,96.57
2023-03-06T18:24:53.872Z,127.40
2023-03-06T18:27:40.863Z,195.02
2023-03-06T18:30:27.665Z,280.05
2023-03-06T18:33:14.621Z,176.25
2023-03-06T18:36:04.096Z,214.40
2023-03-06T18:38:51.490Z,192.30
2023-03-06T18:41:39.628Z,182.48
2023-03-06T18:44:26.501Z,184.57
2023-03-06T18:47:15.616Z,167.07
2023-03-06T18:50:05.386Z,172.77
2023-03-06T18:52:51.566Z,171.55
2023-03-06T18:55:38.535Z,175.93
2023-03-06T18:58:24.916Z,170.95
2023-03-06T19:01:12.094Z,169.70
2023-03-06T19:04:02.759Z,148.80
2023-03-06T19:06:52.226Z,143.40
2023-03-06T19:09:38.899Z,163.93
2023-03-06T19:12:25.684Z,145.57
2023-03-06T19:15:12.576Z,195.20
2023-03-06T19:18:05.666Z,171.77
2023-03-06T19:21:17.737Z,173.68
2023-03-06T19:24:13.363Z,170.25
2023-03-06T19:26:59.975Z,148.15
2023-03-06T19:29:46.784Z,130.35
2023-03-06T19:32:49.707Z,126.97
2023-03-06T19:36:05.897Z,131.73
2023-03-06T19:38:58.572Z,154.65
2023-03-06T19:44:33.400Z,179.63
2023-03-06T19:47:20.266Z,214.15
2023-03-06T19:50:07.244Z,247.95
2023-03-06T19:52:54.912Z,209.85
2023-03-06T19:55:44.631Z,200.18
2023-03-06T19:58:31.766Z,207.73
2023-03-06T20:01:21.357Z,200.55
2023-03-06T20:04:08.215Z,200.02
2023-03-06T20:06:56.356Z,258.75
2023-03-06T20:09:44.310Z,282.45
2023-03-06T20:12:33.865Z,244.32
2023-03-06T20:15:22.369Z,230.68
2023-03-06T20:18:09.161Z,231.88
2023-03-06T20:21:02.181Z,212.25
2023-03-06T20:23:51.112Z,210.30
2023-03-06T20:26:38.644Z,291.05
2023-03-06T20:29:28.252Z,209.88
2023-03-06T20:32:14.808Z,206.52
2023-03-06T20:35:02.046Z,213.85
2023-03-06T20:37:48.293Z,214.85
2023-03-06T20:40:38.916Z,211.68
2023-03-06T20:43:28.432Z,212.15
2023-03-06T20:46:16.557Z,213.82
2023-03-06T20:49:03.377Z,203.05
2023-03-06T20:51:50.500Z,167.35
2023-03-06T20:54:36.809Z,168.52
2023-03-06T20:57:23.805Z,170.15
2023-03-06T21:00:11.966Z,147.57
2023-03-06T21:02:58.726Z,142.32
2023-03-06T21:05:48.657Z,140.27
2023-03-06T21:08:35.875Z,143.85
2023-03-06T21:11:22.373Z,146.85
2023-03-06T21:14:11.481Z,137.73
2023-03-06T21:16:59.396Z,142.02
2023-03-06T21:19:47.252Z,137.75
2023-03-06T21:22:33.588Z,125.07
2023-03-06T21:25:20.739Z,138.35
2023-03-06T21:28:07.381Z,128.30
2023-03-06T21:30:54.536Z,120.07
2023-03-06T21:33:41.230Z,132.90
2023-03-06T21:36:28.294Z,130.27
2023-03-06T21:39:14.532Z,119.97
2023-03-06T21:42:01.294Z,120.95
2023-03-06T21:44:47.853Z,117.95
2023-03-06T21:47:38.887Z,106.80
2023-03-06T21:50:25.746Z,96.00
2023-03-06T21:53:12.556Z,122.18
2023-03-06T21:56:01.627Z,114.80
2023-03-06T21:59:00.344Z,112.28
2023-03-06T22:01:47.655Z,106.75
2023-03-06T22:04:34.511Z,96.55
2023-03-06T22:07:21.367Z,86.13
2023-03-06T22:10:12.326Z,87.20
2023-03-06T22:12:58.882Z,81.18
2023-03-06T22:15:53.024Z,78.90
2023-03-06T22:18:39.378Z,74.30
2023-03-06T22:21:26.411Z,76.18
2023-03-06T22:24:12.653Z,72.07
2023-03-06T22:26:59.515Z,77.63
2023-03-06T22:29:46.243Z,75.55
2023-03-06T22:32:32.902Z,79.68
2023-03-06T22:35:20.336Z,91.25
2023-03-06T22:38:07.196Z,103.03
2023-03-06T22:40:57.135Z,111.32
2023-03-06T22:43:44.153Z,106.00
2023-03-06T22:46:32.133Z,103.55
2023-03-06T22:49:19.186Z,93.25
2023-03-06T22:52:05.648Z,89.03
2023-03-06T22:54:52.453Z,92.80
2023-03-06T22:57:38.874Z,93.60
2023-03-06T23:00:25.851Z,104.72
2023-03-06T23:03:12.041Z,100.60
2023-03-06T23:05:58.637Z,96.53
2023-03-06T23:08:49.365Z,93.55
2023-03-06T23:11:36.108Z,89.43
2023-03-06T23:14:41.437Z,91.28
2023-03-06T23:17:46.894Z,87.22
2023-03-06T23:20:51.480Z,83.47
2023-03-06T23:23:56.832Z,102.05
2023-03-06T23:26:43.435Z,121.68
2023-03-06T23:29:30.078Z,136.80
2023-03-06T23:32:16.568Z,109.22
2023-03-06T23:35:03.233Z,95.95
2023-03-06T23:37:49.767Z,89.55
2023-03-06T23:40:37.988Z,90.57
2023-03-06T23:43:24.433Z,98.60
2023-03-06T23:46:11.259Z,97.57
2023-03-06T23:48:57.632Z,109.53
2023-03-06T23:51:44.260Z,103.38
2023-03-06T23:54:30.754Z,111.50
2023-03-06T23:57:17.200Z,111.72
